createdAt,value
2022-09-02T00:01:39.394Z,4.43
2022-09-02T00:04:09.892Z,4.72
2022-09-02T00:06:39.711Z,4.72
2022-09-02T00:09:09.421Z,4.57
2022-09-02T00:11:39.383Z,4.97
2022-09-02T00:14:08.991Z,4.70
2022-09-02T00:16:36.906Z,4.80
2022-09-02T00:19:05.999Z,4.57
2022-09-02T00:21:35.229Z,5.28
2022-09-02T00:24:06.328Z,4.68
2022-09-02T00:26:34.175Z,4.90
2022-09-02T00:29:01.995Z,5.40
2022-09-02T00:31:29.962Z,4.53
2022-09-02T00:33:57.973Z,5.30
2022-09-02T00:36:26.020Z,4.80
2022-09-02T00:38:53.926Z,4.70
2022-09-02T00:41:25.557Z,4.53
2022-09-02T00:43:59.763Z,5.13
2022-09-02T00:46:30.465Z,4.90
2022-09-02T00:49:03.434Z,4.72
2022-09-02T00:51:37.941Z,4.93
2022-09-02T00:54:07.437Z,4.60
2022-09-02T00:56:39.536Z,4.97
2022-09-02T00:59:08.635Z,4.47
2022-09-02T01:01:36.639Z,4.65
2022-09-02T01:04:04.844Z,4.45
2022-09-02T01:06:32.900Z,4.95
2022-09-02T01:09:08.072Z,5.00
2022-09-02T01:11:42.306Z,5.00
2022-09-02T01:14:12.529Z,5.20
2022-09-02T01:16:42.913Z,4.70
2022-09-02T01:19:19.903Z,5.15
2022-09-02T01:21:50.479Z,4.90
2022-09-02T01:24:21.114Z,4.78
2022-09-02T01:26:49.094Z,4.60
2022-09-02T01:29:17.936Z,4.82
2022-09-02T01:31:46.106Z,4.78
2022-09-02T01:34:13.940Z,4.88
2022-09-02T01:36:43.268Z,5.30
2022-09-02T01:39:14.316Z,5.00
2022-09-02T01:41:42.821Z,4.75
2022-09-02T01:44:11.314Z,4.68
2022-09-02T01:46:39.392Z,5.03
2022-09-02T01:49:07.319Z,5.68
2022-09-02T01:51:35.484Z,4.93
2022-09-02T01:54:03.435Z,4.97
2022-09-02T01:56:32.594Z,4.90
2022-09-02T01:59:00.436Z,4.63
2022-09-02T02:01:28.324Z,5.00
2022-09-02T02:03:57.378Z,5.00
2022-09-02T02:06:25.257Z,4.75
2022-09-02T02:08:53.110Z,5.38
2022-09-02T02:11:21.812Z,4.95
2022-09-02T02:13:51.184Z,5.13
2022-09-02T02:16:19.078Z,5.35
2022-09-02T02:18:46.931Z,4.95
2022-09-02T02:21:14.930Z,5.18
2022-09-02T02:23:42.752Z,5.10
2022-09-02T02:26:10.680Z,5.00
2022-09-02T02:28:38.915Z,5.07
2022-09-02T02:31:08.511Z,5.32
2022-09-02T02:33:36.806Z,5.38
2022-09-02T02:36:05.587Z,5.18
2022-09-02T02:38:33.878Z,4.82
2022-09-02T02:41:06.400Z,5.38
2022-09-02T02:43:35.449Z,5.37
2022-09-02T02:46:03.900Z,5.25
2022-09-02T02:48:34.096Z,5.15
2022-09-02T02:51:02.355Z,5.22
2022-09-02T02:53:31.298Z,5.18
2022-09-02T02:55:59.354Z,5.05
2022-09-02T02:58:27.360Z,5.10
2022-09-02T03:00:55.715Z,5.00
2022-09-02T03:03:23.654Z,5.10
2022-09-02T03:05:53.227Z,5.05
2022-09-02T03:08:22.968Z,5.78
2022-09-02T03:10:54.572Z,5.30
2022-09-02T03:13:23.060Z,5.28
2022-09-02T03:15:51.870Z,5.68
2022-09-02T03:18:20.265Z,5.40
2022-09-02T03:20:48.105Z,5.13
2022-09-02T03:23:17.484Z,5.15
2022-09-02T03:25:46.711Z,5.13
2022-09-02T03:28:15.410Z,4.60
2022-09-02T03:30:43.350Z,5.07
2022-09-02T03:33:11.212Z,4.95
2022-09-02T03:35:41.913Z,4.90
2022-09-02T03:38:11.483Z,5.03
2022-09-02T03:40:41.809Z,4.90
2022-09-02T03:43:09.653Z,4.93
2022-09-02T03:45:38.836Z,5.38
2022-09-02T03:48:06.933Z,5.65
2022-09-02T03:50:39.353Z,5.00
2022-09-02T03:53:08.775Z,5.10
2022-09-02T03:55:44.369Z,4.93
2022-09-02T03:58:12.408Z,5.20
2022-09-02T04:00:40.577Z,4.90
2022-09-02T04:03:08.470Z,5.00
2022-09-02T04:05:37.248Z,5.20
2022-09-02T04:08:06.228Z,5.07
2022-09-02T04:10:34.058Z,5.30
2022-09-02T04:13:03.364Z,5.30
2022-09-02T04:15:31.183Z,5.40
2022-09-02T04:18:54.297Z,5.38
2022-09-02T04:21:22.058Z,5.10
2022-09-02T04:23:49.799Z,5.15
2022-09-02T04:26:18.414Z,5.40
2022-09-02T04:28:47.950Z,5.50
2022-09-02T04:31:17.700Z,5.65
2022-09-02T04:33:46.010Z,5.50
2022-09-02T04:36:16.330Z,5.57
2022-09-02T04:38:46.476Z,5.07
2022-09-02T04:41:17.477Z,5.80
2022-09-02T04:43:45.375Z,5.40
2022-09-02T04:46:16.456Z,5.45
2022-09-02T04:48:47.294Z,5.25
2022-09-02T04:51:17.056Z,5.70
2022-09-02T04:53:46.223Z,5.68
2022-09-02T04:56:16.765Z,5.15
2022-09-02T04:58:45.387Z,5.30
2022-09-02T05:01:17.945Z,5.50
2022-09-02T05:06:16.183Z,5.80
2022-09-02T05:08:44.610Z,5.53
2022-09-02T05:11:14.352Z,5.70
2022-09-02T05:13:42.567Z,5.60
2022-09-02T05:16:10.477Z,5.70
2022-09-02T05:18:39.951Z,5.60
2022-09-02T05:21:08.344Z,5.05
2022-09-02T05:23:36.157Z,5.20
2022-09-02T05:26:04.899Z,5.05
2022-09-02T05:28:32.744Z,5.25
2022-09-02T05:31:05.956Z,5.22
2022-09-02T05:33:34.080Z,5.50
2022-09-02T05:36:04.132Z,5.35
2022-09-02T05:38:32.352Z,5.35
2022-09-02T05:41:00.648Z,5.15
2022-09-02T05:43:28.585Z,5.28
2022-09-02T05:45:56.380Z,5.30
2022-09-02T05:48:41.879Z,5.15
2022-09-02T05:51:11.149Z,4.88
2022-09-02T05:53:39.049Z,5.38
2022-09-02T05:56:07.367Z,5.00
2022-09-02T05:58:35.193Z,5.18
2022-09-02T06:01:09.095Z,5.28
2022-09-02T06:03:37.054Z,5.38
2022-09-02T06:06:06.880Z,5.18
2022-09-02T06:08:36.787Z,4.85
2022-09-02T06:11:06.312Z,5.85
2022-09-02T06:13:36.596Z,5.32
2022-09-02T06:16:05.560Z,5.63
2022-09-02T06:18:33.600Z,5.13
2022-09-02T06:21:01.963Z,5.50
2022-09-02T06:23:29.991Z,4.80
2022-09-02T06:26:00.469Z,4.78
2022-09-02T06:28:28.435Z,4.68
2022-09-02T06:30:56.429Z,4.80
2022-09-02T06:33:25.243Z,4.40
2022-09-02T06:35:53.200Z,4.72
2022-09-02T06:38:21.111Z,4.10
2022-09-02T06:40:50.679Z,4.35
2022-09-02T06:43:20.334Z,4.50
2022-09-02T06:45:48.466Z,4.35
2022-09-02T06:48:16.612Z,4.30
2022-09-02T06:50:46.823Z,4.40
2022-09-02T06:53:17.698Z,4.50
2022-09-02T06:55:46.865Z,4.07
2022-09-02T06:58:15.799Z,4.18
2022-09-02T07:00:45.786Z,4.20
2022-09-02T07:03:31.635Z,4.00
2022-09-02T07:06:04.704Z,3.97
2022-09-02T07:08:32.891Z,4.40
2022-09-02T07:11:01.003Z,3.75
2022-09-02T07:13:29.010Z,4.35
2022-09-02T07:15:58.413Z,4.13
2022-09-02T07:18:26.273Z,4.18
2022-09-02T07:20:55.547Z,3.75
2022-09-02T07:23:23.485Z,3.92
2022-09-02T07:25:51.530Z,3.83
2022-09-02T07:28:19.965Z,4.15
2022-09-02T07:30:47.925Z,4.40
2022-09-02T07:33:17.255Z,4.25
2022-09-02T07:35:45.758Z,4.80
2022-09-02T07:38:15.038Z,4.60
2022-09-02T07:40:43.939Z,4.18
2022-09-02T07:43:12.806Z,4.97
2022-09-02T07:45:43.668Z,5.10
2022-09-02T07:48:11.688Z,4.53
2022-09-02T07:50:41.017Z,4.80
2022-09-02T07:53:09.041Z,4.38
2022-09-02T07:55:41.373Z,4.28
2022-09-02T07:58:10.225Z,4.00
2022-09-02T08:00:44.575Z,4.72
2022-09-02T08:03:14.228Z,4.05
2022-09-02T08:05:45.154Z,3.80
2022-09-02T08:08:13.027Z,3.90
2022-09-02T08:10:41.303Z,3.92
2022-09-02T08:13:11.066Z,3.72
2022-09-02T08:15:40.039Z,4.32
2022-09-02T08:18:08.753Z,3.85
2022-09-02T08:20:48.400Z,3.47
2022-09-02T08:23:35.573Z,3.85
2022-09-02T08:26:05.497Z,3.53
2022-09-02T08:28:34.129Z,3.63
2022-09-02T08:31:06.294Z,3.50
2022-09-02T08:33:34.402Z,3.10
2022-09-02T08:36:05.973Z,3.20
2022-09-02T08:38:33.851Z,3.03
2022-09-02T08:41:02.167Z,3.20
2022-09-02T08:43:38.497Z,3.17
2022-09-02T08:46:08.637Z,3.17
2022-09-02T08:48:41.530Z,3.65
2022-09-02T08:51:14.281Z,3.50
2022-09-02T08:53:48.163Z,3.30
2022-09-02T08:56:18.459Z,3.17
2022-09-02T08:58:50.201Z,3.30
2022-09-02T09:01:26.371Z,2.63
2022-09-02T09:04:10.541Z,2.58
2022-09-02T09:06:53.966Z,2.53
2022-09-02T09:09:33.200Z,2.40
2022-09-02T09:12:10.107Z,2.20
2022-09-02T09:14:49.442Z,3.20
2022-09-02T09:17:27.468Z,2.47
2022-09-02T09:19:59.025Z,2.67
2022-09-02T09:22:32.871Z,2.42
2022-09-02T09:25:01.107Z,2.38
2022-09-02T09:27:29.002Z,2.45
2022-09-02T09:29:57.235Z,2.30
2022-09-02T09:32:29.391Z,2.35
2022-09-02T09:37:36.307Z,2.17
2022-09-02T09:40:30.607Z,2.50
2022-09-02T09:43:15.455Z,2.03
2022-09-02T09:45:45.793Z,2.30
2022-09-02T09:48:33.750Z,2.33
2022-09-02T09:51:14.110Z,2.15
2022-09-02T09:53:43.482Z,1.90
2022-09-02T09:56:41.483Z,2.38
2022-09-02T09:59:41.165Z,1.92
2022-09-02T10:02:20.957Z,2.03
2022-09-02T10:04:49.410Z,1.75
2022-09-02T10:07:36.328Z,1.85
2022-09-02T10:10:17.359Z,1.90
2022-09-02T10:12:46.715Z,1.83
2022-09-02T10:15:14.911Z,1.80
2022-09-02T10:17:54.650Z,1.70
2022-09-02T10:20:32.831Z,1.60
2022-09-02T10:23:18.610Z,2.00
2022-09-02T10:26:00.539Z,2.22
2022-09-02T10:28:42.905Z,1.85
2022-09-02T10:31:21.078Z,1.77
2022-09-02T10:34:03.348Z,2.50
2022-09-02T10:39:15.288Z,2.10
2022-09-02T10:41:47.412Z,1.85
2022-09-02T10:44:30.417Z,1.60
2022-09-02T10:47:02.146Z,2.00
2022-09-02T10:49:52.622Z,1.80
2022-09-02T10:52:47.419Z,1.67
2022-09-02T10:55:22.133Z,1.65
2022-09-02T10:57:55.463Z,1.55
2022-09-02T11:00:24.517Z,1.60
2022-09-02T11:02:59.032Z,1.80
2022-09-02T11:05:29.784Z,1.88
2022-09-02T11:08:04.945Z,1.88
2022-09-02T11:10:37.285Z,1.60
2022-09-02T11:13:10.786Z,1.52
2022-09-02T11:15:49.855Z,1.90
2022-09-02T11:18:24.013Z,1.70
2022-09-02T11:21:00.537Z,1.60
2022-09-02T11:23:39.617Z,1.70
2022-09-02T11:26:15.983Z,1.60
2022-09-02T11:28:52.316Z,1.70
2022-09-02T11:31:25.574Z,1.60
2022-09-02T11:33:58.358Z,1.83
2022-09-02T11:36:30.941Z,1.70
2022-09-02T11:39:05.136Z,1.80
2022-09-02T11:41:51.204Z,1.90
2022-09-02T11:44:46.901Z,1.60
2022-09-02T11:47:45.968Z,1.55
2022-09-02T11:50:35.819Z,1.80
2022-09-02T11:53:22.850Z,1.60
2022-09-02T11:55:56.411Z,1.75
2022-09-02T11:58:37.198Z,1.58
2022-09-02T12:01:25.768Z,1.70
2022-09-02T12:04:55.426Z,1.70
2022-09-02T12:07:20.337Z,1.85
2022-09-02T12:09:55.088Z,1.80
2022-09-02T12:13:00.403Z,1.70
2022-09-02T12:15:30.422Z,1.80
2022-09-02T12:18:32.021Z,1.55
2022-09-02T12:21:16.658Z,1.55
2022-09-02T12:24:22.243Z,1.60
2022-09-02T12:29:39.674Z,1.80
2022-09-02T12:32:09.719Z,1.70
2022-09-02T12:34:57.678Z,1.90
2022-09-02T12:37:57.590Z,1.77
2022-09-02T12:40:32.725Z,1.75
2022-09-02T12:43:05.388Z,1.83
2022-09-02T12:45:35.566Z,1.80
2022-09-02T12:48:11.322Z,1.60
2022-09-02T12:50:56.102Z,1.50
2022-09-02T12:53:34.568Z,1.70
2022-09-02T12:56:05.695Z,1.90
2022-09-02T12:58:37.473Z,1.63
2022-09-02T13:01:15.741Z,1.80
2022-09-02T13:04:17.030Z,1.77
2022-09-02T13:07:05.289Z,1.80
2022-09-02T13:09:49.491Z,1.70
2022-09-02T13:12:45.175Z,1.40
2022-09-02T13:15:24.645Z,1.80
2022-09-02T13:18:27.078Z,1.70
2022-09-02T13:21:07.140Z,1.80
2022-09-02T13:24:16.754Z,1.70
2022-09-02T13:27:27.299Z,1.80
2022-09-02T13:30:16.252Z,1.73
2022-09-02T13:32:44.960Z,1.80
2022-09-02T13:35:23.968Z,1.60
2022-09-02T13:38:00.289Z,1.70
2022-09-02T13:40:30.041Z,1.70
2022-09-02T13:43:01.971Z,1.60
2022-09-02T13:45:35.503Z,1.80
2022-09-02T13:48:16.810Z,1.80
2022-09-02T13:50:46.252Z,1.60
2022-09-02T13:53:45.559Z,1.50
2022-09-02T13:56:10.924Z,1.63
2022-09-02T13:58:43.782Z,1.60
2022-09-02T14:01:21.566Z,1.85
2022-09-02T14:03:51.940Z,1.67
2022-09-02T14:06:23.534Z,2.03
2022-09-02T14:08:55.647Z,2.15
2022-09-02T14:11:23.948Z,1.50
2022-09-02T14:13:53.688Z,1.75
2022-09-02T14:16:29.627Z,1.60
2022-09-02T14:19:09.053Z,1.30
2022-09-02T14:21:38.549Z,1.98
2022-09-02T14:24:12.619Z,1.70
2022-09-02T14:26:44.938Z,1.73
2022-09-02T14:29:17.420Z,1.70
2022-09-02T14:31:46.040Z,1.58
2022-09-02T14:34:34.611Z,1.52
2022-09-02T14:37:15.022Z,1.60
2022-09-02T14:39:53.660Z,1.60
2022-09-02T14:42:21.809Z,1.45
2022-09-02T14:44:51.234Z,1.70
2022-09-02T14:47:22.801Z,1.58
2022-09-02T14:49:53.434Z,1.65
2022-09-02T14:52:24.565Z,1.50
2022-09-02T14:54:53.912Z,1.52
2022-09-02T14:57:24.728Z,1.55
2022-09-02T14:59:54.235Z,1.45
2022-09-02T15:02:30.929Z,1.50
2022-09-02T15:05:00.439Z,1.65
2022-09-02T15:07:29.185Z,1.90
2022-09-02T15:09:57.010Z,1.70
2022-09-02T15:12:29.614Z,1.60
2022-09-02T15:14:59.552Z,1.70
2022-09-02T15:17:28.388Z,1.40
2022-09-02T15:19:56.570Z,1.40
2022-09-02T15:22:25.113Z,1.40
2022-09-02T15:24:53.103Z,1.40
2022-09-02T15:27:21.836Z,1.50
2022-09-02T15:29:49.920Z,1.67
2022-09-02T15:32:19.194Z,1.98
2022-09-02T15:34:47.071Z,1.48
2022-09-02T15:37:15.122Z,1.50
2022-09-02T15:39:43.195Z,1.60
2022-09-02T15:42:11.084Z,1.67
2022-09-02T15:44:38.863Z,1.52
2022-09-02T15:47:06.721Z,1.40
2022-09-02T15:49:35.901Z,1.65
2022-09-02T15:52:04.435Z,1.50
2022-09-02T15:54:32.610Z,1.67
2022-09-02T15:57:01.053Z,1.65
2022-09-02T15:59:28.966Z,1.38
2022-09-02T16:01:58.697Z,1.60
2022-09-02T16:04:29.721Z,1.45
2022-09-02T16:06:58.926Z,1.63
2022-09-02T16:09:26.797Z,1.50
2022-09-02T16:11:56.085Z,1.50
2022-09-02T16:14:25.296Z,1.75
2022-09-02T16:16:54.959Z,2.20
2022-09-02T16:19:23.888Z,1.70
2022-09-02T16:21:53.049Z,1.90
2022-09-02T16:24:23.153Z,1.65
2022-09-02T16:26:51.652Z,1.70
2022-09-02T16:29:20.276Z,1.55
2022-09-02T16:32:02.181Z,1.52
2022-09-02T16:34:35.657Z,1.50
2022-09-02T16:37:03.397Z,1.40
2022-09-02T16:39:32.686Z,1.60
2022-09-02T16:42:04.223Z,1.42
2022-09-02T16:44:33.959Z,1.70
2022-09-02T16:47:01.916Z,1.60
2022-09-02T16:49:29.996Z,1.88
2022-09-02T16:51:59.914Z,1.55
2022-09-02T16:54:31.584Z,1.60
2022-09-02T16:57:01.773Z,1.35
2022-09-02T16:59:31.542Z,1.50
2022-09-02T17:01:59.844Z,1.50
2022-09-02T17:04:27.674Z,1.70
2022-09-02T17:06:57.425Z,1.30
2022-09-02T17:09:25.219Z,1.52
2022-09-02T17:11:54.133Z,1.65
2022-09-02T17:14:23.703Z,1.40
2022-09-02T17:16:52.838Z,1.65
2022-09-02T17:19:22.457Z,1.80
2022-09-02T17:21:51.895Z,2.45
2022-09-02T17:24:21.659Z,3.40
2022-09-02T17:26:52.235Z,2.70
2022-09-02T17:32:12.114Z,2.22
2022-09-02T17:34:40.063Z,1.77
2022-09-02T17:37:08.132Z,1.60
2022-09-02T17:39:36.025Z,1.98
2022-09-02T17:42:03.443Z,1.80
2022-09-02T17:44:36.057Z,2.40
2022-09-02T17:47:05.979Z,1.77
2022-09-02T17:49:36.309Z,2.08
2022-09-02T17:52:05.419Z,1.90
2022-09-02T17:54:33.222Z,1.92
2022-09-02T17:57:10.338Z,1.85
2022-09-02T17:59:53.260Z,1.70
2022-09-02T18:02:37.486Z,1.80
2022-09-02T18:05:16.990Z,1.70
2022-09-02T18:07:51.116Z,1.60
2022-09-02T18:10:19.151Z,1.52
2022-09-02T18:12:47.058Z,1.63
2022-09-02T18:15:19.568Z,1.70
2022-09-02T18:17:49.111Z,1.60
2022-09-02T18:20:26.676Z,1.50
2022-09-02T18:23:10.642Z,1.85
2022-09-02T18:25:51.742Z,1.70
2022-09-02T18:28:40.676Z,1.40
2022-09-02T18:31:24.088Z,1.67
2022-09-02T18:34:25.019Z,1.50
2022-09-02T18:37:07.554Z,1.60
2022-09-02T18:39:49.953Z,2.05
2022-09-02T18:45:01.441Z,1.73
2022-09-02T18:47:32.681Z,1.70
2022-09-02T18:50:04.820Z,1.60
2022-09-02T18:52:37.454Z,1.80
2022-09-02T18:55:13.481Z,1.95
2022-09-02T18:57:50.001Z,1.95
2022-09-02T19:00:22.796Z,1.67
2022-09-02T19:02:57.999Z,1.70
2022-09-02T19:05:27.425Z,1.67
2022-09-02T19:08:20.121Z,1.90
2022-09-02T19:13:17.005Z,1.90
2022-09-02T19:15:45.161Z,2.05
2022-09-02T19:18:13.693Z,1.80
2022-09-02T19:20:41.976Z,1.90
2022-09-02T19:23:13.680Z,1.70
2022-09-02T19:25:45.321Z,1.90
2022-09-02T19:28:16.036Z,1.67
2022-09-02T19:30:46.565Z,2.05
2022-09-02T19:33:16.605Z,2.10
2022-09-02T19:35:49.697Z,1.85
2022-09-02T19:38:19.626Z,2.25
2022-09-02T19:40:49.132Z,1.85
2022-09-02T19:43:17.643Z,2.03
2022-09-02T19:45:50.348Z,1.80
2022-09-02T19:48:22.228Z,2.00
2022-09-02T19:50:50.679Z,2.10
2022-09-02T19:53:25.324Z,1.85
2022-09-02T19:55:53.786Z,2.03
2022-09-02T19:58:22.274Z,1.70
2022-09-02T20:00:53.245Z,2.35
2022-09-02T20:03:22.424Z,2.10
2022-09-02T20:05:52.262Z,1.90
2022-09-02T20:08:23.470Z,2.10
2022-09-02T20:10:56.148Z,1.80
2022-09-02T20:13:26.443Z,2.00
2022-09-02T20:15:56.065Z,2.10
2022-09-02T20:18:27.761Z,2.15
2022-09-02T20:20:58.888Z,2.15
2022-09-02T20:23:32.991Z,2.20
2022-09-02T20:26:17.699Z,2.17
2022-09-02T20:29:00.606Z,2.28
2022-09-02T20:31:53.261Z,2.60
2022-09-02T20:34:38.359Z,2.45
2022-09-02T20:37:19.287Z,2.50
2022-09-02T20:40:10.382Z,2.40
2022-09-02T20:42:55.328Z,2.70
2022-09-02T20:45:27.730Z,2.45
2022-09-02T20:48:06.541Z,2.33
2022-09-02T20:50:46.458Z,2.70
2022-09-02T20:53:33.064Z,2.03
2022-09-02T20:56:07.162Z,1.85
2022-09-02T20:58:46.359Z,1.98
2022-09-02T21:01:20.990Z,1.95
2022-09-02T21:03:56.416Z,1.98
2022-09-02T21:06:30.437Z,1.83
2022-09-02T21:09:05.011Z,2.10
2022-09-02T21:11:45.960Z,2.00
2022-09-02T21:14:17.345Z,2.15
2022-09-02T21:16:51.087Z,2.10
2022-09-02T21:19:30.254Z,2.25
2022-09-02T21:22:04.433Z,2.38
2022-09-02T21:24:39.268Z,2.20
2022-09-02T21:27:18.291Z,2.10
2022-09-02T21:29:52.667Z,2.00
2022-09-02T21:32:27.322Z,1.77
2022-09-02T21:34:59.605Z,1.80
2022-09-02T21:37:30.220Z,1.80
2022-09-02T21:40:04.362Z,1.98
2022-09-02T21:42:45.958Z,2.20
2022-09-02T21:45:24.061Z,2.10
2022-09-02T21:48:02.474Z,1.85
2022-09-02T21:50:43.136Z,2.00
2022-09-02T21:53:20.109Z,1.90
2022-09-02T21:56:01.767Z,2.08
2022-09-02T21:58:54.384Z,2.13
2022-09-02T22:01:42.185Z,1.95
2022-09-02T22:04:24.767Z,2.08
2022-09-02T22:07:01.481Z,2.08
2022-09-02T22:09:32.165Z,2.13
2022-09-02T22:12:06.438Z,1.50
2022-09-02T22:14:46.550Z,2.30
2022-09-02T22:17:24.911Z,2.00
2022-09-02T22:19:57.819Z,2.20
2022-09-02T22:22:30.234Z,2.20
2022-09-02T22:24:58.511Z,1.95
2022-09-02T22:27:32.836Z,1.92
2022-09-02T22:30:06.074Z,2.20
2022-09-02T22:32:38.717Z,2.10
2022-09-02T22:35:12.031Z,1.95
2022-09-02T22:37:48.327Z,2.00
2022-09-02T22:40:20.228Z,2.00
2022-09-02T22:42:53.056Z,2.10
2022-09-02T22:45:47.650Z,2.28
2022-09-02T22:48:37.297Z,1.90
2022-09-02T22:51:27.161Z,2.22
2022-09-02T22:53:54.936Z,2.00
2022-09-02T22:56:34.731Z,1.90
2022-09-02T22:59:42.824Z,2.10
2022-09-02T23:02:22.388Z,2.13
2022-09-02T23:05:03.337Z,1.90
2022-09-02T23:07:31.251Z,2.13
2022-09-02T23:10:01.258Z,1.92
2022-09-02T23:12:38.029Z,2.40
2022-09-02T23:15:20.392Z,2.60
2022-09-02T23:17:57.933Z,2.13
2022-09-02T23:20:39.532Z,1.80
2022-09-02T23:23:22.845Z,2.10
2022-09-02T23:26:08.322Z,2.13
2022-09-02T23:28:49.774Z,2.10
2022-09-02T23:31:25.991Z,2.13
2022-09-02T23:34:07.083Z,1.95
2022-09-02T23:36:48.947Z,2.10
2022-09-02T23:39:33.404Z,1.97
2022-09-02T23:42:02.374Z,1.98
2022-09-02T23:44:31.176Z,2.17
2022-09-02T23:47:12.935Z,2.08
2022-09-02T23:49:50.411Z,2.15
2022-09-02T23:52:26.206Z,2.03
2022-09-02T23:55:13.170Z,2.00
2022-09-02T23:58:08.467Z,2.10
